• Join FlightAware (Why Join?)
  • Login
  • US Flag 
02:57PM EDT


 

Airport Tracker/Info


-or-


 

Live Flight TrackerFlight Track Log ✈ UAL3841 ✈ 31-Jul-2013 ✈ KIND - KIAD

Flight Track Log - Related Links

Times and Time Zones

All times are in EDT time to prevent confusion due to time zone crossing. See the UAL3841 flight status page for this flight to view local times or setup timezone preferences in your user account.

Time Position Orientation Groundspeed Altitude Reporting Facility
EDT Latitude Longitude Course Direction KTS MPH feet Rate Location/Type
10:19AM 39.7000 -86.3000 83° East 167 192 1,500  Level Indianapolis TRACON
10:19AM 39.6833 -86.3167 218° Southwest 168 193 2,800 2,580 Climbing Indianapolis TRACON
10:20AM 39.6333 -86.3000 166° South 232 267 5,700 2,220 Climbing Indianapolis TRACON
10:21AM 39.7780 -85.8370 83° East  Level FlightAware Approximate
10:21AM 39.6667 -86.2167 63° Northeast 281 323 7,500  Level Indianapolis TRACON
10:22AM 39.7982 -85.6869 79° East  Level FlightAware Approximate
10:22AM 39.7000 -86.1333 63° Northeast 297 342 9,600  Level Indianapolis TRACON
10:23AM 39.8231 -85.5378 74° East  Level FlightAware Approximate
10:24AM 39.8524 -85.3903 83° East  Level FlightAware Approximate
10:24AM 39.7211 -85.9975 79° East 307 353 11,400  Level Indianapolis Center
10:25AM 39.7536 -85.8461 74° East 356 410 12,700 1,200 Climbing Indianapolis Center
10:26AM 39.7819 -85.7156 74° East 373 429 14,000 1,260 Climbing Indianapolis Center
10:27AM 39.8108 -85.5825 74° East 382 440 15,400 1,380 Climbing Indianapolis Center
10:28AM 39.8394 -85.4508 74° East 381 438 16,900 1,200 Climbing Indianapolis Center
10:29AM 39.8683 -85.3197 74° East 380 437 17,900 1,080 Climbing Indianapolis Center
10:30AM 39.8886 -85.1514 81° East 392 451 19,200 1,080 Climbing Indianapolis Center
10:31AM 39.8956 -85.0056 86° East 405 466 20,200 960 Climbing Indianapolis Center
10:32AM 39.9039 -84.8564 86° East 414 476 21,200 960 Climbing Indianapolis Center
10:33AM 39.9122 -84.7064 86° East 417 480 22,300 960 Climbing Indianapolis Center
10:34AM 39.9194 -84.5536 86° East 424 488 23,300 960 Climbing Indianapolis Center
10:35AM 39.9275 -84.4000 86° East 427 491 24,300 1,080 Climbing Indianapolis Center
10:36AM 39.9381 -84.2164 86° East 425 489 25,600 1,080 Climbing Indianapolis Center
10:37AM 39.9486 -84.0644 85° East 425 489 26,600 960 Climbing Indianapolis Center
10:38AM 39.9547 -83.9097 87° East 427 491 27,600 960 Climbing Indianapolis Center
10:39AM 39.9581 -83.7525 88° East 428 493 28,700 960 Climbing Indianapolis Center
10:40AM 39.9633 -83.5964 87° East 431 496 29,700 960 Climbing Indianapolis Center
10:41AM 39.9686 -83.4383 87° East 435 501 30,800 1,080 Climbing Indianapolis Center
10:42AM 39.9742 -83.2458 88° East 441 507 32,000 1,020 Climbing Indianapolis Center
10:43AM 39.9769 -83.0842 89° East 445 512 33,000 960 Climbing Indianapolis Center
10:44AM 39.9831 -82.9206 87° East 450 518 34,100 960 Climbing Indianapolis Center
10:45AM 39.9864 -82.7536 88° East 456 525 35,000 420 Climbing Indianapolis Center
10:46AM 39.9903 -82.5842 88° East 463 533 35,000  Level Indianapolis Center
10:47AM 39.9939 -82.4119 88° East 471 542 35,000  Level Indianapolis Center
10:49AM 39.9981 -82.2100 88° East 474 545 35,000  Level Indianapolis Center
10:50AM 40.0014 -82.0375 88° East 475 547 35,000  Level Indianapolis Center
10:51AM 40.0042 -81.8653 89° East 474 545 35,000  Level Indianapolis Center
10:52AM 40.0067 -81.6906 89° East 476 548 35,000  Level Indianapolis Center
10:53AM 40.0092 -81.5169 89° East 477 549 35,000  Level Indianapolis Center
10:54AM 40.0111 -81.3450 89° East 474 545 35,000  Level Indianapolis Center
10:55AM 40.0131 -81.1756 89° East 468 539 35,000  Level Indianapolis Center
10:56AM 40.0156 -81.0139 89° East 456 525 35,000  Level Indianapolis Center
10:57AM 40.0147 -80.8278 90° East 443 510 35,000  Level Indianapolis Center
10:58AM 39.9564 -80.6842 118° Southeast 448 516 35,000  Level Indianapolis Center
10:59AM 39.8867 -80.5414 122° Southeast 452 520 35,000  Level Indianapolis Center
11:00AM 39.8194 -80.4022 122° Southeast 453 521 35,000  Level Indianapolis Center
11:01AM 39.7533 -80.2658 122° Southeast 448 516 35,000 -480 Level Indianapolis Center
11:02AM 39.6897 -80.1333 122° Southeast 436 502 34,100 -1,500 Descending Indianapolis Center
11:03AM 39.6153 -79.9744 121° Southeast 433 498 31,800 -2,100 Descending Washington Center
11:04AM 39.5556 -79.8364 119° Southeast 443 510 29,800 -2,040 Descending Washington Center
11:05AM 39.5275 -79.6814 103° East 437 503 27,800 -1,440 Descending Washington Center
11:06AM 39.5014 -79.5319 103° East 432 497 27,000 -660 Descending Washington Center
11:07AM 39.4747 -79.3878 103° East 420 483 26,600 -900 Descending Washington Center
11:08AM 39.4475 -79.2519 105° East 420 483 25,200 -1,440 Descending Washington Center
11:09AM 39.4208 -79.1056 103° East 420 483 23,700 -1,560 Descending Washington Center
11:10AM 39.3975 -78.9675 102° East 409 471 22,100 -1,680 Descending Washington Center
11:11AM 39.3700 -78.8292 104° East 398 458 20,400 -2,220 Descending Washington Center
11:12AM 39.3486 -78.6994 102° East 390 449 17,800 -2,340 Descending Washington Center
11:13AM 39.3267 -78.5806 103° East 360 414 15,800 -1,920 Descending Washington Center
11:14AM 39.3044 -78.4617 104° East 348 400 14,000 -1,800 Descending Washington Center
11:15AM 39.2778 -78.3506 107° East 337 388 12,300 -1,500 Descending Washington Center
11:16AM 39.2300 -78.2575 124° Southeast 313 360 11,000 -1,080 Descending Washington Center
11:17AM 39.1819 -78.1675 125° Southeast 313 360 10,200 -960 Descending Washington Center
11:18AM 39.1336 -78.0803 126° Southeast 313 360 9,100 -600 Descending Washington Center
11:19AM 39.0875 -77.9903 123° Southeast 308 354 9,100 -780 Level Washington Center
11:20AM 39.0392 -77.9033 126° Southeast 303 349 7,600 -1,320 Descending Washington Center
11:21AM 38.9992 -77.8219 122° Southeast 285 328 6,500 -840 Descending Washington Center
11:22AM 38.9633 -77.7272 116° Southeast 272 313 6,000 -240 Descending Washington Center
11:24AM 39.0000 -77.5833 72° East 252 290 6,000  Level Potomac TRACON
11:25AM 39.0500 -77.5667 15° North 239 275 6,000  Level Potomac TRACON
11:26AM 39.1167 -77.5667 360° North 239 275 6,000  Level Potomac TRACON
11:27AM 39.1833 -77.5833 349° North 236 272 6,000  Level Potomac TRACON
11:28AM 39.2500 -77.5833 360° North 233 268 6,000 -240 Level Potomac TRACON
11:29AM 39.3167 -77.5667 11° North 236 272 5,600 -540 Descending Potomac TRACON
11:30AM 39.3333 -77.5167 67° East 217 250 5,000 -300 Descending Potomac TRACON
11:31AM 39.3000 -77.4667 131° Southeast 184 212 5,000  Level Potomac TRACON
11:32AM 39.2667 -77.4500 159° South 182 209 5,000 -60 Level Potomac TRACON
11:33AM 39.2167 -77.4500 180° South 182 209 4,900 -540 Descending Potomac TRACON
11:34AM 39.1667 -77.4500 180° South 180 207 4,000 -960 Descending Potomac TRACON
11:35AM 39.1167 -77.4500 180° South 166 191 3,000 -900 Descending Potomac TRACON
11:36AM 39.0667 -77.4500 180° South 155 178 2,200 -840 Descending Potomac TRACON
11:36AM 39.0333 -77.4667 201° Southwest 148 170 1,500 -720 Descending Potomac TRACON
11:38AM 39.0000 -77.4667 180° South 126 145 800 -660 Descending Potomac TRACON